KVYS/VYS METAR and TAF weather

Enter ICAO airport designator
Station Type Date Time Source
KVYS METAR 2019/08/24 09:15 UTC NOAA

KVYS 240915Z AUTO 05006KT 10SM CLR 12/11 A3025 RMK AO2 T01200105


Station Type Date Time Source
KVYS Decoded METAR 2019/08/24 09:15 UTC NOAA

Station name not available
Aug 24, 2019 - 05:15 AM EDT / 2019.08.24 0915 UTC
Wind: from the NE (050 degrees) at 7 MPH (6 KT):0
Visibility: 10 mile(s):0
Sky conditions: clear
Temperature: 53.6 F (12.0 C)
Dew Point: 50.9 F (10.5 C)
Relative Humidity: 90%
Pressure (altimeter): 30.25 in. Hg (1024 hPa)
ob: KVYS 240915Z AUTO 05006KT 10SM CLR 12/11 A3025 RMK AO2 T01200105
cycle: 9

Station Type Date Time Source
KVYS TAF UTC NOAA

Error!

Example: see airport list